sensor_id;sensor_type;location;lat;lon;timestamp;pressure;altitude;pressure_sealevel;temperature;humidity
62980;BME280;49075;53.988;27.678;2023-12-28T00:02:09;987.3;;;-0.5;66.9
62980;BME280;49075;53.988;27.678;2023-12-28T00:06:55;987.4;;;-0.5;65.9
62980;BME280;49075;53.988;27.678;2023-12-28T00:11:37;987.4;;;-0.5;65.6
62980;BME280;49075;53.988;27.678;2023-12-28T00:16:31;987.4;;;-0.6;65
62980;BME280;49075;53.988;27.678;2023-12-28T00:21:43;987.6;;;-0.6;63.3
62980;BME280;49075;53.988;27.678;2023-12-28T00:26:31;987.7;;;-0.6;63.4
62980;BME280;49075;53.988;27.678;2023-12-28T00:31:31;987.7;;;-0.6;63.4
62980;BME280;49075;53.988;27.678;2023-12-28T00:36:43;987.8;;;-0.5;63.9
62980;BME280;49075;53.988;27.678;2023-12-28T00:42:09;988;;;-0.6;63.5
62980;BME280;49075;53.988;27.678;2023-12-28T00:46:47;988;;;-0.5;64.1
62980;BME280;49075;53.988;27.678;2023-12-28T00:51:43;988;;;-0.5;64
62980;BME280;49075;53.988;27.678;2023-12-28T00:56:59;988;;;-0.5;64.5
62980;BME280;49075;53.988;27.678;2023-12-28T01:01:43;988.1;;;-0.4;64.7
62980;BME280;49075;53.988;27.678;2023-12-28T01:06:51;988.1;;;-0.3;65.3
62980;BME280;49075;53.988;27.678;2023-12-28T01:12:15;988.1;;;-0.5;64.8
62980;BME280;49075;53.988;27.678;2023-12-28T01:16:49;988.1;;;-0.5;65.6
62980;BME280;49075;53.988;27.678;2023-12-28T01:21:43;988.1;;;-0.5;64.8
62980;BME280;49075;53.988;27.678;2023-12-28T01:26:31;988.1;;;-0.4;65.6
62980;BME280;49075;53.988;27.678;2023-12-28T01:31:31;988.1;;;-0.5;64.7
62980;BME280;49075;53.988;27.678;2023-12-28T01:37:01;988.1;;;-0.5;65.5
62980;BME280;49075;53.988;27.678;2023-12-28T01:41:43;988.1;;;-0.7;64.1
62980;BME280;49075;53.988;27.678;2023-12-28T01:46:41;988.1;;;-0.7;65
62980;BME280;49075;53.988;27.678;2023-12-28T01:52:03;988.1;;;-0.7;64.5
62980;BME280;49075;53.988;27.678;2023-12-28T01:57:15;988.1;;;-0.8;65.2
62980;BME280;49075;53.988;27.678;2023-12-28T02:01:43;988.1;;;-0.9;64.4
62980;BME280;49075;53.988;27.678;2023-12-28T02:06:49;988.2;;;-1;64.9
62980;BME280;49075;53.988;27.678;2023-12-28T02:12:13;988.2;;;-1;64.3
62980;BME280;49075;53.988;27.678;2023-12-28T02:16:44;988.2;;;-1;64.9
62980;BME280;49075;53.988;27.678;2023-12-28T02:21:51;988.2;;;-0.9;64.6
62980;BME280;49075;53.988;27.678;2023-12-28T02:26:31;988.1;;;-1;64.7
62980;BME280;49075;53.988;27.678;2023-12-28T02:32:01;988.2;;;-1;64.5
62980;BME280;49075;53.988;27.678;2023-12-28T02:37:11;988.3;;;-0.9;64.7
62980;BME280;49075;53.988;27.678;2023-12-28T02:41:49;988.2;;;-1;64.5
62980;BME280;49075;53.988;27.678;2023-12-28T02:46:47;988.2;;;-1;65.4
62980;BME280;49075;53.988;27.678;2023-12-28T02:51:43;988.3;;;-1.1;65.2
62980;BME280;49075;53.988;27.678;2023-12-28T02:56:31;988.2;;;-1;65.6
62980;BME280;49075;53.988;27.678;2023-12-28T03:01:43;988.3;;;-1.1;65.8
62980;BME280;49075;53.988;27.678;2023-12-28T03:06:41;988.3;;;-1.1;65.8
62980;BME280;49075;53.988;27.678;2023-12-28T03:11:49;988.3;;;-1.1;66.3
62980;BME280;49075;53.988;27.678;2023-12-28T03:16:31;988.4;;;-1.1;66.1
62980;BME280;49075;53.988;27.678;2023-12-28T03:21:51;988.4;;;-1.1;66.6
62980;BME280;49075;53.988;27.678;2023-12-28T03:26:31;988.4;;;-1.1;66.2
62980;BME280;49075;53.988;27.678;2023-12-28T03:31:39;988.4;;;-1.1;66.8
62980;BME280;49075;53.988;27.678;2023-12-28T03:36:51;988.4;;;-1.1;66.7
62980;BME280;49075;53.988;27.678;2023-12-28T03:41:49;988.4;;;-1.1;66.8
62980;BME280;49075;53.988;27.678;2023-12-28T03:46:59;988.4;;;-1.2;66.6
62980;BME280;49075;53.988;27.678;2023-12-28T03:51:31;988.5;;;-1.1;66.8
62980;BME280;49075;53.988;27.678;2023-12-28T03:56:31;988.7;;;-1.2;66.2
62980;BME280;49075;53.988;27.678;2023-12-28T04:01:43;988.8;;;-1.3;66.8
62980;BME280;49075;53.988;27.678;2023-12-28T04:06:31;988.7;;;-1.4;66.5
62980;BME280;49075;53.988;27.678;2023-12-28T04:11:51;988.7;;;-1.4;66.9
62980;BME280;49075;53.988;27.678;2023-12-28T04:17:23;988.7;;;-1.4;66.5
62980;BME280;49075;53.988;27.678;2023-12-28T04:21:31;988.6;;;-1.4;67
62980;BME280;49075;53.988;27.678;2023-12-28T04:27:23;988.6;;;-1.4;66.8
62980;BME280;49075;53.988;27.678;2023-12-28T04:31:49;988.5;;;-1.4;67.1
62980;BME280;49075;53.988;27.678;2023-12-28T04:36:47;988.5;;;-1.4;67
62980;BME280;49075;53.988;27.678;2023-12-28T04:41:51;988.4;;;-1.4;67.3
62980;BME280;49075;53.988;27.678;2023-12-28T04:46:43;988.5;;;-1.6;67.1
62980;BME280;49075;53.988;27.678;2023-12-28T04:51:49;988.4;;;-1.6;67.6
62980;BME280;49075;53.988;27.678;2023-12-28T04:56:51;988.5;;;-1.8;67.7
62980;BME280;49075;53.988;27.678;2023-12-28T05:02:15;988.4;;;-1.8;67.8
62980;BME280;49075;53.988;27.678;2023-12-28T05:06:55;988.4;;;-1.9;67.9
62980;BME280;49075;53.988;27.678;2023-12-28T05:11:31;988.6;;;-1.9;68.1
62980;BME280;49075;53.988;27.678;2023-12-28T05:16:55;988.5;;;-2;68.3
62980;BME280;49075;53.988;27.678;2023-12-28T05:21:49;988.5;;;-2;68.3
62980;BME280;49075;53.988;27.678;2023-12-28T05:27:01;988.5;;;-2;68.6
62980;BME280;49075;53.988;27.678;2023-12-28T05:31:51;988.4;;;-2.1;68.7
62980;BME280;49075;53.988;27.678;2023-12-28T05:36:31;988.4;;;-2;68.7
62980;BME280;49075;53.988;27.678;2023-12-28T05:41:31;988.4;;;-2;68.6
62980;BME280;49075;53.988;27.678;2023-12-28T05:46:43;988.5;;;-1.9;68.8
62980;BME280;49075;53.988;27.678;2023-12-28T05:51:43;988.6;;;-2;68.9
62980;BME280;49075;53.988;27.678;2023-12-28T05:56:31;988.6;;;-1.9;69
62980;BME280;49075;53.988;27.678;2023-12-28T06:01:49;988.5;;;-1.8;68.8
62980;BME280;49075;53.988;27.678;2023-12-28T06:06:31;988.3;;;-1.7;68.9
62980;BME280;49075;53.988;27.678;2023-12-28T06:11:37;988.3;;;-1.7;68.7
62980;BME280;49075;53.988;27.678;2023-12-28T06:16:49;988.2;;;-1.6;68.9
62980;BME280;49075;53.988;27.678;2023-12-28T06:21:49;988.1;;;-1.6;68.5
62980;BME280;49075;53.988;27.678;2023-12-28T06:26:39;988.1;;;-1.5;68.7
62980;BME280;49075;53.988;27.678;2023-12-28T06:31:41;988.1;;;-1.5;68.3
62980;BME280;49075;53.988;27.678;2023-12-28T06:36:31;988.1;;;-1.5;68.6
62980;BME280;49075;53.988;27.678;2023-12-28T06:41:31;988.1;;;-1.7;68.3
62980;BME280;49075;53.988;27.678;2023-12-28T06:46:31;988.1;;;-1.7;68.8
62980;BME280;49075;53.988;27.678;2023-12-28T06:51:57;988.1;;;-1.7;68.4
62980;BME280;49075;53.988;27.678;2023-12-28T06:57:13;988;;;-1.6;68.6
62980;BME280;49075;53.988;27.678;2023-12-28T07:01:31;988;;;-1.8;68.5
62980;BME280;49075;53.988;27.678;2023-12-28T07:07:09;988;;;-1.7;69
62980;BME280;49075;53.988;27.678;2023-12-28T07:11:57;987.9;;;-1.7;68.7
62980;BME280;49075;53.988;27.678;2023-12-28T07:16:57;987.8;;;-1.5;69
62980;BME280;49075;53.988;27.678;2023-12-28T07:21:31;987.9;;;-1.5;68.8
62980;BME280;49075;53.988;27.678;2023-12-28T07:26:49;987.8;;;-1.4;69.2
62980;BME280;49075;53.988;27.678;2023-12-28T07:32:13;987.9;;;-1.4;69.2
62980;BME280;49075;53.988;27.678;2023-12-28T07:37:01;987.8;;;-1.3;69.5
62980;BME280;49075;53.988;27.678;2023-12-28T07:41:31;987.7;;;-1.4;69.7
62980;BME280;49075;53.988;27.678;2023-12-28T07:46:41;987.6;;;-1.3;70.1
62980;BME280;49075;53.988;27.678;2023-12-28T07:51:39;987.5;;;-1.4;70.2
62980;BME280;49075;53.988;27.678;2023-12-28T07:57:05;987.3;;;-1.4;70.6
62980;BME280;49075;53.988;27.678;2023-12-28T08:01:43;987.3;;;-1.3;70.6
62980;BME280;49075;53.988;27.678;2023-12-28T08:06:58;987.3;;;-1.2;70.7
62980;BME280;49075;53.988;27.678;2023-12-28T08:11:43;987.4;;;-1.2;70.8
62980;BME280;49075;53.988;27.678;2023-12-28T08:16:41;987.3;;;-1.2;70.9
62980;BME280;49075;53.988;27.678;2023-12-28T08:21:31;987.5;;;-1.1;70.8
62980;BME280;49075;53.988;27.678;2023-12-28T08:26:31;987.6;;;-1;70.7
62980;BME280;49075;53.988;27.678;2023-12-28T08:32:15;987.5;;;-1.1;71
62980;BME280;49075;53.988;27.678;2023-12-28T08:36:51;987.5;;;-1.3;71.4
62980;BME280;49075;53.988;27.678;2023-12-28T08:41:49;987.5;;;-1.2;71.5
62980;BME280;49075;53.988;27.678;2023-12-28T08:46:49;987.4;;;-1.1;71.1
62980;BME280;49075;53.988;27.678;2023-12-28T08:52:09;987.4;;;-1;71.2
62980;BME280;49075;53.988;27.678;2023-12-28T08:56:43;987.4;;;-1.1;71.3
62980;BME280;49075;53.988;27.678;2023-12-28T09:01:52;987.3;;;-1.1;71.6
62980;BME280;49075;53.988;27.678;2023-12-28T09:06:43;987.2;;;-1.2;72
62980;BME280;49075;53.988;27.678;2023-12-28T09:11:31;987.2;;;-1.2;72.2
62980;BME280;49075;53.988;27.678;2023-12-28T09:16:31;987.2;;;-1.3;72.3
62980;BME280;49075;53.988;27.678;2023-12-28T09:21:31;987.3;;;-1.2;72
62980;BME280;49075;53.988;27.678;2023-12-28T09:26:41;987.3;;;-1.3;72
62980;BME280;49075;53.988;27.678;2023-12-28T09:31:53;987.2;;;-1.3;71.8
62980;BME280;49075;53.988;27.678;2023-12-28T09:36:49;987;;;-1.1;71.6
62980;BME280;49075;53.988;27.678;2023-12-28T09:41:43;986.9;;;-1;71.5
62980;BME280;49075;53.988;27.678;2023-12-28T09:47:01;986.8;;;-1.1;71.5
62980;BME280;49075;53.988;27.678;2023-12-28T09:51:46;986.7;;;-1.1;71.5
62980;BME280;49075;53.988;27.678;2023-12-28T09:56:31;986.6;;;-1.2;71.8
62980;BME280;49075;53.988;27.678;2023-12-28T10:01:31;986.3;;;-1.1;71.6
62980;BME280;49075;53.988;27.678;2023-12-28T10:06:31;986.2;;;-1.3;72
62980;BME280;49075;53.988;27.678;2023-12-28T10:11:47;986.1;;;-1.2;71.9
62980;BME280;49075;53.988;27.678;2023-12-28T10:16:31;986.1;;;-1.1;71.5
62980;BME280;49075;53.988;27.678;2023-12-28T10:21:31;986.1;;;-1.1;71.3
62980;BME280;49075;53.988;27.678;2023-12-28T10:26:59;986.1;;;-1.1;71.2
62980;BME280;49075;53.988;27.678;2023-12-28T10:31:53;986;;;-1.1;71.3
62980;BME280;49075;53.988;27.678;2023-12-28T10:36:55;985.9;;;-1.1;71.6
62980;BME280;49075;53.988;27.678;2023-12-28T10:42:05;985.6;;;-1.1;71.4
62980;BME280;49075;53.988;27.678;2023-12-28T10:46:41;985.5;;;-1.1;71.5
62980;BME280;49075;53.988;27.678;2023-12-28T10:51:41;985.4;;;-1;71.1
62980;BME280;49075;53.988;27.678;2023-12-28T10:56:33;985.3;;;-1;71.3
62980;BME280;49075;53.988;27.678;2023-12-28T11:01:32;985.1;;;-0.9;71.1
62980;BME280;49075;53.988;27.678;2023-12-28T11:06:31;985.2;;;-1.1;71.3
62980;BME280;49075;53.988;27.678;2023-12-28T11:11:31;985.2;;;-1.1;71.8
62980;BME280;49075;53.988;27.678;2023-12-28T11:16:55;985.4;;;-1;71.6
62980;BME280;49075;53.988;27.678;2023-12-28T11:21:31;985.2;;;-1.2;72.1
62980;BME280;49075;53.988;27.678;2023-12-28T11:26:31;985.1;;;-0.8;71.1
62980;BME280;49075;53.988;27.678;2023-12-28T11:31:59;985.1;;;-0.6;70.8
62980;BME280;49075;53.988;27.678;2023-12-28T11:37:00;985;;;-0.9;71
62980;BME280;49075;53.988;27.678;2023-12-28T11:41:41;985.1;;;-0.8;71.2
62980;BME280;49075;53.988;27.678;2023-12-28T11:46:39;985;;;-0.7;70.9
62980;BME280;49075;53.988;27.678;2023-12-28T11:51:31;984.8;;;-0.7;70.8
62980;BME280;49075;53.988;27.678;2023-12-28T11:56:53;984.6;;;-0.8;70.9
62980;BME280;49075;53.988;27.678;2023-12-28T12:01:41;984.5;;;-1;71.7
62980;BME280;49075;53.988;27.678;2023-12-28T12:06:41;984.3;;;-1;71.9
62980;BME280;49075;53.988;27.678;2023-12-28T12:11:31;984.1;;;-1.3;72.8
62980;BME280;49075;53.988;27.678;2023-12-28T12:16:49;984;;;-1.3;72.9
62980;BME280;49075;53.988;27.678;2023-12-28T12:21:41;983.9;;;-1;72.2
62980;BME280;49075;53.988;27.678;2023-12-28T12:26:49;983.6;;;-1.1;72.3
62980;BME280;49075;53.988;27.678;2023-12-28T12:31:31;983.4;;;-1.2;73
62980;BME280;49075;53.988;27.678;2023-12-28T12:36:57;983;;;-1.2;73.2
62980;BME280;49075;53.988;27.678;2023-12-28T12:41:45;982.9;;;-1.3;73.5
62980;BME280;49075;53.988;27.678;2023-12-28T12:47:01;983;;;-1.3;73.7
62980;BME280;49075;53.988;27.678;2023-12-28T12:51:31;983;;;-1.3;73.5
62980;BME280;49075;53.988;27.678;2023-12-28T12:56:43;982.9;;;-1.3;73.6
62980;BME280;49075;53.988;27.678;2023-12-28T13:02:07;982.9;;;-1.5;74.3
62980;BME280;49075;53.988;27.678;2023-12-28T13:06:47;982.8;;;-1.6;74.7
62980;BME280;49075;53.988;27.678;2023-12-28T13:11:57;982.8;;;-1.7;75.2
62980;BME280;49075;53.988;27.678;2023-12-28T13:16:57;982.5;;;-1.5;74.6
62980;BME280;49075;53.988;27.678;2023-12-28T13:21:49;982.3;;;-1.5;74.9
62980;BME280;49075;53.988;27.678;2023-12-28T13:26:37;982.4;;;-1.7;75.6
62980;BME280;49075;53.988;27.678;2023-12-28T13:31:51;982.4;;;-1.7;75.6
62980;BME280;49075;53.988;27.678;2023-12-28T13:36:41;982.4;;;-1.8;75.9
62980;BME280;49075;53.988;27.678;2023-12-28T13:41:31;982.2;;;-1.8;76.4
62980;BME280;49075;53.988;27.678;2023-12-28T13:46:43;982.2;;;-1.8;76.4
62980;BME280;49075;53.988;27.678;2023-12-28T13:51:31;982.2;;;-1.9;76.9
62980;BME280;49075;53.988;27.678;2023-12-28T13:56:31;982.1;;;-1.9;76.9
62980;BME280;49075;53.988;27.678;2023-12-28T14:01:31;982;;;-1.7;76.2
62980;BME280;49075;53.988;27.678;2023-12-28T14:06:31;981.9;;;-1.9;77.4
62980;BME280;49075;53.988;27.678;2023-12-28T14:11:31;981.9;;;-1.9;76.9
62980;BME280;49075;53.988;27.678;2023-12-28T14:16:55;981.9;;;-1.8;76.9
62980;BME280;49075;53.988;27.678;2023-12-28T14:21:49;981.8;;;-1.8;76.6
62980;BME280;49075;53.988;27.678;2023-12-28T14:26:41;981.7;;;-1.9;76.7
62980;BME280;49075;53.988;27.678;2023-12-28T14:31:31;981.9;;;-1.7;76.4
62980;BME280;49075;53.988;27.678;2023-12-28T14:36:31;982.1;;;-1.6;76.4
62980;BME280;49075;53.988;27.678;2023-12-28T14:41:53;982.2;;;-1.7;77
62980;BME280;49075;53.988;27.678;2023-12-28T14:46:31;982.2;;;-1.8;77.5
62980;BME280;49075;53.988;27.678;2023-12-28T14:51:31;982.2;;;-1.9;78.3
62980;BME280;49075;53.988;27.678;2023-12-28T14:56:41;982;;;-1.7;78
62980;BME280;49075;53.988;27.678;2023-12-28T15:01:39;981.8;;;-1.8;78.9
62980;BME280;49075;53.988;27.678;2023-12-28T15:06:31;981.7;;;-1.7;78.6
62980;BME280;49075;53.988;27.678;2023-12-28T15:11:31;981.6;;;-1.8;79.1
62980;BME280;49075;53.988;27.678;2023-12-28T15:16:41;981.5;;;-1.9;80.4
62980;BME280;49075;53.988;27.678;2023-12-28T15:21:43;981.4;;;-1.8;80
62980;BME280;49075;53.988;27.678;2023-12-28T15:26:59;981.3;;;-1.8;80.2
62980;BME280;49075;53.988;27.678;2023-12-28T15:31:55;981.3;;;-1.9;80.2
62980;BME280;49075;53.988;27.678;2023-12-28T15:37:01;981.4;;;-2;80.9
62980;BME280;49075;53.988;27.678;2023-12-28T15:41:55;981.3;;;-1.9;80.7
62980;BME280;49075;53.988;27.678;2023-12-28T15:46:31;981.3;;;-1.8;80.6
62980;BME280;49075;53.988;27.678;2023-12-28T15:51:47;981.2;;;-1.7;80.1
62980;BME280;49075;53.988;27.678;2023-12-28T15:57:01;981.2;;;-1.6;80.3
62980;BME280;49075;53.988;27.678;2023-12-28T16:01:31;981.1;;;-1.6;80.2
62980;BME280;49075;53.988;27.678;2023-12-28T16:06:55;981;;;-1.8;81.8
62980;BME280;49075;53.988;27.678;2023-12-28T16:12:01;981;;;-1.9;82.8
62980;BME280;49075;53.988;27.678;2023-12-28T16:17:09;980.9;;;-1.8;83
62980;BME280;49075;53.988;27.678;2023-12-28T16:21:31;980.9;;;-1.7;82.6
62980;BME280;49075;53.988;27.678;2023-12-28T16:26:43;980.9;;;-1.8;83.4
62980;BME280;49075;53.988;27.678;2023-12-28T16:31:29;980.9;;;-1.6;82.6
62980;BME280;49075;53.988;27.678;2023-12-28T16:36:41;981;;;-1.6;82.9
62980;BME280;49075;53.988;27.678;2023-12-28T16:41:53;981;;;-1.6;83
62980;BME280;49075;53.988;27.678;2023-12-28T16:46:49;981;;;-1.5;83.1
62980;BME280;49075;53.988;27.678;2023-12-28T16:51:31;981;;;-1.4;82.6
62980;BME280;49075;53.988;27.678;2023-12-28T16:56:47;980.9;;;-1.3;82.4
62980;BME280;49075;53.988;27.678;2023-12-28T17:02:09;980.8;;;-1.2;82.3
62980;BME280;49075;53.988;27.678;2023-12-28T17:06:43;980.7;;;-1.2;82.5
62980;BME280;49075;53.988;27.678;2023-12-28T17:11:31;980.7;;;-1.2;82.7
62980;BME280;49075;53.988;27.678;2023-12-28T17:16:31;980.7;;;-1.1;82.5
62980;BME280;49075;53.988;27.678;2023-12-28T17:21:53;980.7;;;-1;81.6
62980;BME280;49075;53.988;27.678;2023-12-28T17:26:51;980.7;;;-0.9;81.8
62980;BME280;49075;53.988;27.678;2023-12-28T17:31:45;980.7;;;-0.9;81.9
62980;BME280;49075;53.988;27.678;2023-12-28T17:36:47;980.5;;;-0.8;81.6
62980;BME280;49075;53.988;27.678;2023-12-28T17:41:31;980.5;;;-0.9;81.8
62980;BME280;49075;53.988;27.678;2023-12-28T17:46:40;980.4;;;-0.7;81.6
62980;BME280;49075;53.988;27.678;2023-12-28T17:51:37;980.4;;;-0.7;81.4
62980;BME280;49075;53.988;27.678;2023-12-28T17:56:53;980.2;;;-0.7;81.6
62980;BME280;49075;53.988;27.678;2023-12-28T18:01:45;980;;;-0.5;80.6
62980;BME280;49075;53.988;27.678;2023-12-28T18:06:47;979.9;;;-0.5;81
62980;BME280;49075;53.988;27.678;2023-12-28T18:11:39;979.8;;;-0.4;80.6
62980;BME280;49075;53.988;27.678;2023-12-28T18:17:01;979.6;;;-0.6;81.8
62980;BME280;49075;53.988;27.678;2023-12-28T18:21:31;979.6;;;-0.6;81.7
62980;BME280;49075;53.988;27.678;2023-12-28T18:26:31;979.6;;;-0.6;81.8
62980;BME280;49075;53.988;27.678;2023-12-28T18:31:53;979.7;;;-0.4;81
62980;BME280;49075;53.988;27.678;2023-12-28T18:36:45;979.8;;;-0.4;81.1
62980;BME280;49075;53.988;27.678;2023-12-28T18:41:47;979.8;;;-0.3;81
62980;BME280;49075;53.988;27.678;2023-12-28T18:46:39;979.8;;;-0.1;80.3
62980;BME280;49075;53.988;27.678;2023-12-28T18:51:43;979.8;;;-0.1;80.3
62980;BME280;49075;53.988;27.678;2023-12-28T18:56:31;979.8;;;-0.2;80.8
62980;BME280;49075;53.988;27.678;2023-12-28T19:02:09;979.9;;;-0.1;80.6
62980;BME280;49075;53.988;27.678;2023-12-28T19:06:43;979.9;;;-0.1;80.3
62980;BME280;49075;53.988;27.678;2023-12-28T19:11:41;979.9;;;-0.2;80.7
62980;BME280;49075;53.988;27.678;2023-12-28T19:16:55;980;;;-0.2;80.9
62980;BME280;49075;53.988;27.678;2023-12-28T19:21:31;979.9;;;-0.1;80.7
62980;BME280;49075;53.988;27.678;2023-12-28T19:26:41;979.9;;;-0.1;80.7
62980;BME280;49075;53.988;27.678;2023-12-28T19:31:31;979.8;;;-0.2;81.3
62980;BME280;49075;53.988;27.678;2023-12-28T19:36:47;979.7;;;-0.1;81.1
62980;BME280;49075;53.988;27.678;2023-12-28T19:41:31;979.8;;;-0.1;81.1
62980;BME280;49075;53.988;27.678;2023-12-28T19:46:39;979.7;;;0;80.8
62980;BME280;49075;53.988;27.678;2023-12-28T19:51:53;979.9;;;0.2;80.2
62980;BME280;49075;53.988;27.678;2023-12-28T19:56:49;979.9;;;0.3;79.8
62980;BME280;49075;53.988;27.678;2023-12-28T20:02:01;979.8;;;0.2;80.1
62980;BME280;49075;53.988;27.678;2023-12-28T20:06:31;979.8;;;0.2;80.2
62980;BME280;49075;53.988;27.678;2023-12-28T20:11:47;979.8;;;0.3;80
62980;BME280;49075;53.988;27.678;2023-12-28T20:16:31;979.8;;;0.2;80.3
62980;BME280;49075;53.988;27.678;2023-12-28T20:21:55;979.7;;;0.2;80.8
62980;BME280;49075;53.988;27.678;2023-12-28T20:26:31;979.7;;;0.2;80.6
62980;BME280;49075;53.988;27.678;2023-12-28T20:31:31;979.7;;;0.3;80.4
62980;BME280;49075;53.988;27.678;2023-12-28T20:36:37;979.7;;;0.5;79.8
62980;BME280;49075;53.988;27.678;2023-12-28T20:41:43;979.7;;;0.4;80.2
62980;BME280;49075;53.988;27.678;2023-12-28T20:47:01;979.7;;;0.4;80.4
62980;BME280;49075;53.988;27.678;2023-12-28T20:51:59;979.6;;;0.4;80.5
62980;BME280;49075;53.988;27.678;2023-12-28T20:56:31;979.5;;;0.6;80.3
62980;BME280;49075;53.988;27.678;2023-12-28T21:01:45;979.6;;;0.4;81.2
62980;BME280;49075;53.988;27.678;2023-12-28T21:06:31;979.7;;;0.5;81
62980;BME280;49075;53.988;27.678;2023-12-28T21:11:37;979.7;;;0.4;82
62980;BME280;49075;53.988;27.678;2023-12-28T21:16:53;979.6;;;0.5;81.6
62980;BME280;49075;53.988;27.678;2023-12-28T21:21:31;979.5;;;0.6;81.6
62980;BME280;49075;53.988;27.678;2023-12-28T21:26:52;979.4;;;0.6;81.5
62980;BME280;49075;53.988;27.678;2023-12-28T21:31:49;979.3;;;0.6;82.4
62980;BME280;49075;53.988;27.678;2023-12-28T21:36:51;979.3;;;0.7;81.9
62980;BME280;49075;53.988;27.678;2023-12-28T21:41:31;979.3;;;0.7;81.9
62980;BME280;49075;53.988;27.678;2023-12-28T21:46:39;979.2;;;0.7;82.1
62980;BME280;49075;53.988;27.678;2023-12-28T21:51:43;979.2;;;0.7;82.2
62980;BME280;49075;53.988;27.678;2023-12-28T21:56:31;979.1;;;0.7;82.5
62980;BME280;49075;53.988;27.678;2023-12-28T22:01:47;979.1;;;0.7;82.7
62980;BME280;49075;53.988;27.678;2023-12-28T22:06:57;978.9;;;0.4;83.8
62980;BME280;49075;53.988;27.678;2023-12-28T22:11:31;978.8;;;0.7;83.3
62980;BME280;49075;53.988;27.678;2023-12-28T22:16:31;978.9;;;0.8;82.6
62980;BME280;49075;53.988;27.678;2023-12-28T22:21:31;978.9;;;0.8;82.8
62980;BME280;49075;53.988;27.678;2023-12-28T22:27:09;979;;;0.9;82.7
62980;BME280;49075;53.988;27.678;2023-12-28T22:32:09;979;;;0.9;82.9
62980;BME280;49075;53.988;27.678;2023-12-28T22:36:41;978.9;;;0.9;82.9
62980;BME280;49075;53.988;27.678;2023-12-28T22:42:09;978.8;;;0.9;83.5
62980;BME280;49075;53.988;27.678;2023-12-28T22:47:09;978.8;;;0.9;83.6
62980;BME280;49075;53.988;27.678;2023-12-28T22:51:49;978.8;;;1.1;83.2
62980;BME280;49075;53.988;27.678;2023-12-28T22:57:01;978.9;;;1.3;82.3
62980;BME280;49075;53.988;27.678;2023-12-28T23:01:55;978.8;;;1.3;82.6
62980;BME280;49075;53.988;27.678;2023-12-28T23:06:31;978.8;;;1.2;82.8
62980;BME280;49075;53.988;27.678;2023-12-28T23:11:31;978.9;;;1.2;83
62980;BME280;49075;53.988;27.678;2023-12-28T23:16:57;978.9;;;1.4;82.4
62980;BME280;49075;53.988;27.678;2023-12-28T23:21:55;978.9;;;1.3;83.2
62980;BME280;49075;53.988;27.678;2023-12-28T23:27:13;979;;;1.5;82.5
62980;BME280;49075;53.988;27.678;2023-12-28T23:31:31;979;;;1.6;82
62980;BME280;49075;53.988;27.678;2023-12-28T23:36:31;978.9;;;1.7;81.4
62980;BME280;49075;53.988;27.678;2023-12-28T23:41:31;978.8;;;1.8;81.3
62980;BME280;49075;53.988;27.678;2023-12-28T23:46:31;978.7;;;1.8;81.2
62980;BME280;49075;53.988;27.678;2023-12-28T23:52:09;978.6;;;1.8;81.5
62980;BME280;49075;53.988;27.678;2023-12-28T23:56:47;978.8;;;2;81
